createdAt,value
2022-11-30T00:01:39.838Z,13.10
2022-11-30T00:04:09.286Z,13.10
2022-11-30T00:06:49.022Z,13.67
2022-11-30T00:09:17.479Z,14.13
2022-11-30T00:11:45.778Z,13.73
2022-11-30T00:14:14.155Z,13.53
2022-11-30T00:16:42.672Z,12.70
2022-11-30T00:19:11.013Z,12.87
2022-11-30T00:21:39.389Z,13.73
2022-11-30T00:24:11.565Z,13.30
2022-11-30T00:26:39.914Z,13.27
2022-11-30T00:29:08.314Z,13.20
2022-11-30T00:31:36.677Z,14.13
2022-11-30T00:34:05.025Z,14.07
2022-11-30T00:36:33.447Z,13.90
2022-11-30T00:39:01.816Z,13.00
2022-11-30T00:41:31.517Z,13.27
2022-11-30T00:43:59.838Z,14.90
2022-11-30T00:46:28.203Z,13.50
2022-11-30T00:48:56.556Z,14.07
2022-11-30T00:51:25.017Z,13.53
2022-11-30T00:53:53.371Z,13.70
2022-11-30T00:56:22.995Z,14.13
2022-11-30T00:58:54.353Z,14.17
2022-11-30T01:01:22.803Z,13.93
2022-11-30T01:03:51.078Z,13.30
2022-11-30T01:06:19.478Z,13.73
2022-11-30T01:08:48.068Z,13.50
2022-11-30T01:11:18.992Z,15.07
2022-11-30T01:13:47.424Z,15.03
2022-11-30T01:16:58.060Z,13.60
2022-11-30T01:19:51.610Z,13.30
2022-11-30T01:22:19.961Z,14.03
2022-11-30T01:24:48.386Z,13.73
2022-11-30T01:27:17.001Z,13.53
2022-11-30T01:29:45.510Z,14.53
2022-11-30T01:32:15.198Z,14.60
2022-11-30T01:34:43.692Z,15.20
2022-11-30T01:37:12.033Z,14.00
2022-11-30T01:39:40.723Z,14.13
2022-11-30T01:42:15.861Z,13.60
2022-11-30T01:44:55.609Z,14.13
2022-11-30T01:47:31.860Z,14.70
2022-11-30T01:50:07.243Z,13.67
2022-11-30T01:52:38.985Z,13.17
2022-11-30T01:55:15.912Z,13.60
2022-11-30T01:57:48.992Z,13.50
2022-11-30T02:00:17.844Z,14.03
2022-11-30T02:02:56.668Z,13.70
2022-11-30T02:05:26.825Z,14.47
2022-11-30T02:07:56.363Z,13.90
2022-11-30T02:10:29.147Z,14.33
2022-11-30T02:13:31.762Z,13.00
2022-11-30T02:16:11.626Z,13.83
2022-11-30T02:18:54.040Z,13.87
2022-11-30T02:21:30.823Z,14.03
2022-11-30T02:24:32.290Z,14.47
2022-11-30T02:27:12.284Z,13.90
2022-11-30T02:29:44.941Z,14.73
2022-11-30T02:32:19.317Z,13.73
2022-11-30T02:34:49.606Z,13.83
2022-11-30T02:37:19.334Z,13.97
2022-11-30T02:39:47.681Z,13.70
2022-11-30T02:42:16.589Z,14.43
2022-11-30T02:44:49.458Z,15.00
2022-11-30T02:47:24.733Z,14.10
2022-11-30T02:49:59.882Z,15.03
2022-11-30T02:52:30.393Z,14.60
2022-11-30T02:55:02.171Z,13.53
2022-11-30T02:57:30.746Z,13.27
2022-11-30T03:00:03.277Z,16.30
2022-11-30T03:02:31.705Z,14.13
2022-11-30T03:05:00.142Z,14.90
2022-11-30T03:07:28.534Z,14.77
2022-11-30T03:09:57.031Z,15.07
2022-11-30T03:12:25.397Z,16.00
2022-11-30T03:14:54.135Z,14.97
2022-11-30T03:17:23.844Z,15.53
2022-11-30T03:19:52.119Z,15.13
2022-11-30T03:22:20.446Z,15.27
2022-11-30T03:24:52.398Z,15.33
2022-11-30T03:27:20.753Z,15.03
2022-11-30T03:29:49.029Z,15.37
2022-11-30T03:32:17.335Z,15.60
2022-11-30T03:34:47.143Z,15.27
2022-11-30T03:37:15.600Z,15.57
2022-11-30T03:39:44.581Z,15.27
2022-11-30T03:42:12.921Z,15.00
2022-11-30T03:44:41.251Z,14.77
2022-11-30T03:47:09.545Z,15.37
2022-11-30T03:49:37.875Z,15.60
2022-11-30T03:52:07.670Z,15.30
2022-11-30T03:54:35.989Z,17.10
2022-11-30T03:57:04.590Z,16.87
2022-11-30T03:59:32.869Z,16.80
2022-11-30T04:02:01.458Z,16.63
2022-11-30T04:04:29.770Z,17.20
2022-11-30T04:06:58.124Z,15.67
2022-11-30T04:09:27.886Z,16.40
2022-11-30T04:11:56.234Z,17.20
2022-11-30T04:14:24.535Z,15.97
2022-11-30T04:16:52.865Z,15.97
2022-11-30T04:19:21.172Z,16.07
2022-11-30T04:21:49.463Z,16.30
2022-11-30T04:24:17.830Z,18.07
2022-11-30T04:26:48.137Z,16.47
2022-11-30T04:29:16.482Z,16.87
2022-11-30T04:31:44.948Z,17.30
2022-11-30T04:34:13.601Z,16.73
2022-11-30T04:36:41.968Z,16.73
2022-11-30T04:39:10.261Z,17.20
2022-11-30T04:41:38.620Z,17.47
2022-11-30T04:44:08.545Z,16.27
2022-11-30T04:46:37.803Z,16.57
2022-11-30T04:49:06.213Z,16.77
2022-11-30T04:51:34.668Z,18.00
2022-11-30T04:54:03.118Z,17.73
2022-11-30T04:56:35.628Z,17.33
2022-11-30T04:59:04.312Z,20.00
2022-11-30T05:01:34.094Z,24.20
2022-11-30T05:04:02.616Z,31.13
2022-11-30T05:06:31.082Z,20.90
2022-11-30T05:08:59.603Z,22.47
2022-11-30T05:11:28.160Z,20.63
2022-11-30T05:13:56.564Z,22.57
2022-11-30T05:16:25.017Z,18.50
2022-11-30T05:18:54.730Z,17.83
2022-11-30T05:21:23.094Z,18.10
2022-11-30T05:23:52.343Z,16.00
2022-11-30T05:26:20.661Z,16.73
2022-11-30T05:28:49.205Z,17.47
2022-11-30T05:31:17.889Z,17.53
2022-11-30T05:33:51.468Z,20.03
2022-11-30T05:36:21.821Z,17.03
2022-11-30T05:38:50.344Z,16.77
2022-11-30T05:41:18.656Z,16.70
2022-11-30T05:43:47.009Z,17.20
2022-11-30T05:46:15.403Z,19.13
2022-11-30T05:48:43.797Z,17.83
2022-11-30T05:51:15.342Z,17.57
2022-11-30T05:53:45.972Z,18.33
2022-11-30T05:56:16.012Z,17.77
2022-11-30T05:58:45.022Z,18.43
2022-11-30T06:01:20.046Z,19.10
2022-11-30T06:03:48.624Z,20.90
2022-11-30T06:06:17.639Z,20.53
2022-11-30T06:08:48.652Z,20.27
2022-11-30T06:11:18.265Z,18.57
2022-11-30T06:13:46.637Z,20.63
2022-11-30T06:16:15.007Z,18.83
2022-11-30T06:18:43.349Z,19.10
2022-11-30T06:21:13.712Z,20.97
2022-11-30T06:23:42.058Z,17.53
2022-11-30T06:26:13.615Z,18.43
2022-11-30T06:28:46.572Z,19.50
2022-11-30T06:31:16.940Z,18.03
2022-11-30T06:33:45.286Z,18.33
2022-11-30T06:36:13.585Z,18.40
2022-11-30T06:38:41.931Z,18.17
2022-11-30T06:41:12.534Z,18.37
2022-11-30T06:43:41.497Z,18.53
2022-11-30T06:46:10.221Z,18.67
2022-11-30T06:48:38.662Z,18.93
2022-11-30T06:51:08.239Z,17.97
2022-11-30T06:53:37.279Z,18.67
2022-11-30T06:56:10.536Z,19.97
2022-11-30T06:58:41.190Z,19.30
2022-11-30T07:01:11.387Z,21.60
2022-11-30T07:03:40.321Z,21.03
2022-11-30T07:06:10.895Z,41.67
2022-11-30T07:08:40.505Z,34.57
2022-11-30T07:11:11.835Z,29.50
2022-11-30T07:13:41.595Z,25.63
2022-11-30T07:16:12.368Z,21.63
2022-11-30T07:18:40.790Z,20.13
2022-11-30T07:21:10.075Z,19.23
2022-11-30T07:23:57.117Z,19.70
2022-11-30T07:26:26.612Z,20.87
2022-11-30T07:28:58.445Z,20.43
2022-11-30T07:31:29.105Z,19.47
2022-11-30T07:33:58.985Z,19.70
2022-11-30T07:36:29.658Z,20.37
2022-11-30T07:38:57.999Z,27.17
2022-11-30T07:41:26.578Z,24.93
2022-11-30T07:43:56.357Z,21.30
2022-11-30T07:46:24.725Z,20.33
2022-11-30T07:48:53.288Z,19.57
2022-11-30T07:51:23.255Z,20.00
2022-11-30T07:53:51.895Z,19.67
2022-11-30T07:56:21.731Z,19.23
2022-11-30T07:58:51.607Z,18.77
2022-11-30T08:01:23.673Z,19.60
2022-11-30T08:03:52.937Z,19.17
2022-11-30T08:06:23.102Z,19.47
2022-11-30T08:09:01.917Z,17.30
2022-11-30T08:11:31.698Z,18.97
2022-11-30T08:14:00.263Z,19.43
2022-11-30T08:16:31.079Z,20.23
2022-11-30T08:18:59.850Z,18.17
2022-11-30T08:21:28.241Z,20.13
2022-11-30T08:23:57.792Z,17.80
2022-11-30T08:26:27.986Z,19.27
2022-11-30T08:28:57.302Z,17.97
2022-11-30T08:31:27.216Z,19.10
2022-11-30T08:33:58.649Z,19.03
2022-11-30T08:36:29.206Z,19.60
2022-11-30T08:38:58.997Z,19.30
2022-11-30T08:41:28.325Z,19.03
2022-11-30T08:43:56.857Z,19.30
2022-11-30T08:49:24.438Z,24.20
2022-11-30T08:54:46.358Z,19.37
2022-11-30T08:57:15.072Z,17.80
2022-11-30T08:59:43.450Z,20.00
2022-11-30T09:02:13.381Z,19.53
2022-11-30T09:04:43.239Z,19.53
2022-11-30T09:07:11.625Z,19.33
2022-11-30T09:09:40.376Z,19.03
2022-11-30T09:12:09.335Z,18.90
2022-11-30T09:14:37.985Z,18.77
2022-11-30T09:17:06.365Z,20.60
2022-11-30T09:19:34.822Z,20.27
2022-11-30T09:22:05.197Z,19.23
2022-11-30T09:24:33.513Z,20.40
2022-11-30T09:27:02.009Z,21.20
2022-11-30T09:29:30.647Z,19.57
2022-11-30T09:31:58.950Z,19.93
2022-11-30T09:34:27.338Z,20.30
2022-11-30T09:36:55.702Z,21.77
2022-11-30T09:39:25.441Z,20.07
2022-11-30T09:42:23.443Z,20.90
2022-11-30T09:45:00.210Z,20.57
2022-11-30T09:47:50.447Z,22.20
2022-11-30T09:50:22.637Z,19.13
2022-11-30T09:52:54.229Z,20.50
2022-11-30T09:55:30.567Z,18.90
2022-11-30T09:58:03.152Z,19.67
2022-11-30T10:00:31.989Z,20.43
2022-11-30T10:03:04.365Z,20.70
2022-11-30T10:05:45.161Z,21.30
2022-11-30T10:08:29.370Z,21.43
2022-11-30T10:11:17.355Z,20.53
2022-11-30T10:14:02.699Z,18.80
2022-11-30T10:16:43.357Z,20.37
2022-11-30T10:19:25.925Z,20.13
2022-11-30T10:22:09.078Z,19.23
2022-11-30T10:24:56.138Z,19.50
2022-11-30T10:27:40.033Z,21.17
2022-11-30T10:30:15.130Z,20.20
2022-11-30T10:32:46.014Z,19.20
2022-11-30T10:35:24.390Z,20.03
2022-11-30T10:37:54.420Z,20.27
2022-11-30T10:40:34.115Z,20.47
2022-11-30T10:43:19.930Z,18.67
2022-11-30T10:45:50.160Z,20.97
2022-11-30T10:48:25.686Z,20.00
2022-11-30T10:50:54.536Z,19.90
2022-11-30T10:53:23.172Z,19.67
2022-11-30T10:56:00.123Z,20.77
2022-11-30T10:58:34.707Z,20.77
2022-11-30T11:01:06.473Z,19.67
2022-11-30T11:03:35.249Z,19.37
2022-11-30T11:06:07.000Z,20.53
2022-11-30T11:08:35.565Z,29.17
2022-11-30T11:11:05.086Z,20.13
2022-11-30T11:13:43.015Z,18.93
2022-11-30T11:16:13.078Z,19.60
2022-11-30T11:18:53.999Z,21.13
2022-11-30T11:21:24.569Z,19.20
2022-11-30T11:23:55.705Z,20.90
2022-11-30T11:26:26.306Z,19.93
2022-11-30T11:28:59.430Z,16.97
2022-11-30T11:31:36.981Z,19.03
2022-11-30T11:34:21.023Z,19.40
2022-11-30T11:37:06.419Z,17.07
2022-11-30T11:39:34.881Z,19.90
2022-11-30T11:42:03.652Z,19.13
2022-11-30T11:44:33.744Z,21.50
2022-11-30T11:47:04.410Z,18.67
2022-11-30T11:49:35.582Z,18.33
2022-11-30T11:52:06.216Z,16.67
2022-11-30T11:54:40.429Z,18.57
2022-11-30T11:57:10.622Z,16.87
2022-11-30T11:59:47.841Z,18.07
2022-11-30T12:02:28.692Z,18.27
2022-11-30T12:05:00.233Z,18.10
2022-11-30T12:07:35.057Z,17.23
2022-11-30T12:10:51.395Z,18.10
2022-11-30T12:13:17.633Z,16.93
2022-11-30T12:16:00.214Z,17.40
2022-11-30T12:18:35.143Z,15.93
2022-11-30T12:21:11.734Z,16.27
2022-11-30T12:23:59.361Z,16.60
2022-11-30T12:26:38.302Z,17.73
2022-11-30T12:29:25.227Z,17.70
2022-11-30T12:32:21.558Z,16.07
2022-11-30T12:35:04.057Z,15.13
2022-11-30T12:37:47.540Z,15.77
2022-11-30T12:40:28.975Z,16.00
2022-11-30T12:43:05.101Z,15.67
2022-11-30T12:45:38.587Z,15.63
2022-11-30T12:48:19.806Z,15.20
2022-11-30T12:51:00.433Z,14.20
2022-11-30T12:53:34.613Z,14.20
2022-11-30T12:56:15.120Z,14.43
2022-11-30T12:58:52.713Z,14.90
2022-11-30T13:01:39.127Z,16.93
2022-11-30T13:04:19.281Z,16.40
2022-11-30T13:06:52.581Z,16.37
2022-11-30T13:09:29.337Z,16.43
2022-11-30T13:12:00.839Z,16.40
2022-11-30T13:14:31.562Z,15.57
2022-11-30T13:17:04.033Z,14.13
2022-11-30T13:19:48.789Z,13.93
2022-11-30T13:22:24.857Z,15.10
2022-11-30T13:25:01.677Z,15.77
2022-11-30T13:27:36.370Z,15.83
2022-11-30T13:30:20.583Z,16.13
2022-11-30T13:32:58.246Z,16.50
2022-11-30T13:35:53.437Z,15.90
2022-11-30T13:38:38.676Z,17.87
2022-11-30T13:41:09.415Z,17.40
2022-11-30T13:43:44.951Z,17.80
2022-11-30T13:46:16.756Z,17.20
2022-11-30T13:48:46.037Z,16.87
2022-11-30T13:51:35.909Z,17.43
2022-11-30T13:54:40.335Z,15.83
2022-11-30T13:57:59.384Z,16.07
2022-11-30T14:01:02.151Z,16.13
2022-11-30T14:03:31.735Z,15.50
2022-11-30T14:06:00.808Z,15.27
2022-11-30T14:08:36.380Z,15.17
2022-11-30T14:11:42.930Z,16.97
2022-11-30T14:14:45.672Z,15.77
2022-11-30T14:17:27.478Z,15.13
2022-11-30T14:20:00.723Z,15.80
2022-11-30T14:22:30.774Z,16.13
2022-11-30T14:25:02.497Z,14.53
2022-11-30T14:27:31.565Z,15.13
2022-11-30T14:30:04.317Z,15.57
2022-11-30T14:32:38.942Z,15.53
2022-11-30T14:35:12.701Z,14.87
2022-11-30T14:37:47.056Z,15.63
2022-11-30T14:40:19.896Z,16.53
2022-11-30T14:42:50.979Z,15.83
2022-11-30T14:45:21.655Z,14.43
2022-11-30T14:47:54.001Z,14.33
2022-11-30T14:50:25.049Z,15.27
2022-11-30T14:53:04.060Z,14.67
2022-11-30T14:55:40.688Z,14.27
2022-11-30T14:58:21.625Z,13.90
2022-11-30T15:00:51.109Z,15.17
2022-11-30T15:03:25.627Z,13.83
2022-11-30T15:05:57.162Z,13.57
2022-11-30T15:08:36.688Z,13.47
2022-11-30T15:11:10.515Z,13.77
2022-11-30T15:13:40.500Z,14.33
2022-11-30T15:16:16.873Z,13.77
2022-11-30T15:18:45.283Z,14.33
2022-11-30T15:21:18.439Z,14.63
2022-11-30T15:23:51.155Z,15.87
2022-11-30T15:26:25.645Z,14.87
2022-11-30T15:28:59.263Z,14.97
2022-11-30T15:31:33.833Z,15.80
2022-11-30T15:34:02.696Z,17.07
2022-11-30T15:36:36.530Z,17.60
2022-11-30T15:39:08.073Z,20.33
2022-11-30T15:41:37.997Z,20.10
2022-11-30T15:44:06.644Z,20.20
2022-11-30T15:46:42.743Z,20.73
2022-11-30T15:49:18.801Z,18.87
2022-11-30T15:51:54.510Z,18.93
2022-11-30T15:54:44.120Z,18.30
2022-11-30T15:57:14.281Z,19.03
2022-11-30T15:59:42.849Z,21.57
2022-11-30T16:02:29.491Z,19.93
2022-11-30T16:05:24.447Z,22.20
2022-11-30T16:07:55.682Z,18.93
2022-11-30T16:10:26.904Z,18.87
2022-11-30T16:12:57.310Z,19.90
2022-11-30T16:15:27.635Z,19.67
2022-11-30T16:17:59.675Z,19.67
2022-11-30T16:20:28.249Z,20.17
2022-11-30T16:23:01.107Z,20.57
2022-11-30T16:25:32.475Z,19.73
2022-11-30T16:28:02.852Z,20.13
2022-11-30T16:30:32.190Z,20.17
2022-11-30T16:33:00.549Z,19.23
2022-11-30T16:35:36.661Z,19.63
2022-11-30T16:38:05.044Z,19.37
2022-11-30T16:40:38.491Z,20.17
2022-11-30T16:43:11.443Z,20.37
2022-11-30T16:45:41.179Z,19.60
2022-11-30T16:48:09.553Z,21.37
2022-11-30T16:50:38.171Z,20.17
2022-11-30T16:53:11.325Z,25.67
2022-11-30T16:55:40.181Z,37.77
2022-11-30T16:58:09.892Z,18.93
2022-11-30T17:00:39.988Z,18.87
2022-11-30T17:03:16.359Z,19.07
2022-11-30T17:05:44.688Z,19.10
2022-11-30T17:08:13.020Z,19.03
2022-11-30T17:10:42.293Z,19.30
2022-11-30T17:13:14.684Z,18.90
2022-11-30T17:15:43.031Z,17.93
2022-11-30T17:18:11.677Z,20.20
2022-11-30T17:20:40.316Z,19.40
2022-11-30T17:23:09.069Z,19.23
2022-11-30T17:25:37.428Z,19.07
2022-11-30T17:28:06.091Z,18.73
2022-11-30T17:30:35.877Z,18.80
2022-11-30T17:33:04.339Z,18.03
2022-11-30T17:35:32.697Z,17.50
2022-11-30T17:38:01.179Z,17.30
2022-11-30T17:40:29.496Z,16.57
2022-11-30T17:42:57.944Z,16.80
2022-11-30T17:45:26.261Z,17.63
2022-11-30T17:47:55.964Z,17.43
2022-11-30T17:50:24.977Z,18.50
2022-11-30T17:52:53.540Z,18.63
2022-11-30T17:55:21.831Z,17.50
2022-11-30T17:57:50.232Z,17.20
2022-11-30T18:00:20.124Z,17.73
2022-11-30T18:02:51.138Z,17.73
2022-11-30T18:05:21.867Z,18.27
2022-11-30T18:07:50.991Z,18.37
2022-11-30T18:10:19.549Z,17.93
2022-11-30T18:12:47.892Z,17.47
2022-11-30T18:15:16.295Z,18.27
2022-11-30T18:17:44.637Z,16.97
2022-11-30T18:20:13.864Z,17.50
2022-11-30T18:22:43.756Z,17.97
2022-11-30T18:25:15.523Z,18.77
2022-11-30T18:27:44.477Z,18.83
2022-11-30T18:30:13.639Z,17.73
2022-11-30T18:32:42.008Z,19.60
2022-11-30T18:35:11.028Z,19.13
2022-11-30T18:37:39.447Z,16.87
2022-11-30T18:40:10.885Z,17.17
2022-11-30T18:42:39.264Z,17.23
2022-11-30T18:45:08.611Z,17.60
2022-11-30T18:47:37.067Z,17.73
2022-11-30T18:50:06.379Z,17.10
2022-11-30T18:52:37.892Z,17.83
2022-11-30T18:55:06.844Z,18.40
2022-11-30T18:57:36.875Z,17.37
2022-11-30T19:00:06.455Z,17.70
2022-11-30T19:02:36.012Z,17.77
2022-11-30T19:05:08.977Z,18.17
2022-11-30T19:07:41.567Z,19.53
2022-11-30T19:10:10.700Z,20.83
2022-11-30T19:12:40.848Z,20.07
2022-11-30T19:15:09.786Z,31.00
2022-11-30T19:17:38.073Z,19.50
2022-11-30T19:20:07.851Z,19.50
2022-11-30T19:22:36.182Z,19.27
2022-11-30T19:25:04.883Z,18.83
2022-11-30T19:27:36.823Z,21.40
2022-11-30T19:30:09.012Z,19.63
2022-11-30T19:32:37.388Z,19.70
2022-11-30T19:35:06.570Z,19.93
2022-11-30T19:37:35.051Z,19.83
2022-11-30T19:40:03.507Z,19.40
2022-11-30T19:42:32.080Z,19.13
2022-11-30T19:45:00.487Z,19.17
2022-11-30T19:47:30.189Z,19.27
2022-11-30T19:49:58.738Z,19.10
2022-11-30T19:52:27.079Z,18.10
2022-11-30T19:54:55.608Z,19.40
2022-11-30T19:57:24.148Z,18.43
2022-11-30T19:59:52.541Z,17.87
2022-11-30T20:02:20.979Z,18.13
2022-11-30T20:04:50.962Z,17.50
2022-11-30T20:07:19.448Z,18.33
2022-11-30T20:09:47.898Z,19.53
2022-11-30T20:12:16.224Z,25.57
2022-11-30T20:14:44.682Z,20.60
2022-11-30T20:17:13.109Z,16.77
2022-11-30T20:19:41.452Z,17.73
2022-11-30T20:22:11.548Z,17.17
2022-11-30T20:24:40.095Z,18.93
2022-11-30T20:27:08.515Z,15.93
2022-11-30T20:29:37.396Z,16.87
2022-11-30T20:32:07.315Z,18.43
2022-11-30T20:34:40.989Z,18.03
2022-11-30T20:37:13.513Z,18.30
2022-11-30T20:39:45.974Z,17.50
2022-11-30T20:42:14.802Z,19.43
2022-11-30T20:44:43.136Z,19.67
2022-11-30T20:47:12.097Z,18.83
2022-11-30T20:49:40.455Z,19.87
2022-11-30T20:52:08.817Z,16.43
2022-11-30T20:54:38.472Z,17.40
2022-11-30T20:57:06.826Z,18.47
2022-11-30T20:59:35.181Z,17.30
2022-11-30T21:02:04.495Z,18.40
2022-11-30T21:04:32.942Z,17.37
2022-11-30T21:07:01.262Z,17.40
2022-11-30T21:09:29.615Z,17.13
2022-11-30T21:11:59.389Z,17.83
2022-11-30T21:14:27.922Z,17.07
2022-11-30T21:16:56.412Z,16.83
2022-11-30T21:19:24.903Z,17.57
2022-11-30T21:21:55.237Z,16.80
2022-11-30T21:24:23.587Z,17.70
2022-11-30T21:26:51.948Z,17.33
2022-11-30T21:29:21.656Z,20.77
2022-11-30T21:31:50.087Z,19.83
2022-11-30T21:34:18.467Z,17.93
2022-11-30T21:36:46.908Z,18.93
2022-11-30T21:39:16.252Z,17.93
2022-11-30T21:41:44.784Z,18.63
2022-11-30T21:44:16.047Z,18.87
2022-11-30T21:46:47.468Z,18.73
2022-11-30T21:49:16.809Z,17.67
2022-11-30T21:51:45.210Z,18.23
2022-11-30T21:54:14.549Z,17.67
2022-11-30T21:56:44.766Z,18.03
2022-11-30T21:59:15.428Z,18.63
2022-11-30T22:01:46.281Z,17.67
2022-11-30T22:04:15.711Z,18.70
2022-11-30T22:06:44.859Z,17.40
2022-11-30T22:09:15.945Z,17.97
2022-11-30T22:11:46.043Z,18.27
2022-11-30T22:14:16.989Z,19.10
2022-11-30T22:16:47.243Z,18.00
2022-11-30T22:19:16.573Z,18.73
2022-11-30T22:21:49.947Z,18.83
2022-11-30T22:24:19.031Z,17.63
2022-11-30T22:26:49.057Z,17.57
2022-11-30T22:29:19.974Z,19.07
2022-11-30T22:31:52.139Z,18.57
2022-11-30T22:34:20.876Z,17.47
2022-11-30T22:36:49.666Z,18.53
2022-11-30T22:39:19.826Z,19.97
2022-11-30T22:41:55.188Z,17.60
2022-11-30T22:44:25.645Z,18.53
2022-11-30T22:46:55.529Z,18.80
2022-11-30T22:49:24.367Z,18.10
2022-11-30T22:51:52.739Z,19.40
2022-11-30T22:54:21.050Z,19.77
2022-11-30T22:56:49.356Z,18.90
2022-11-30T22:59:17.781Z,18.70
2022-11-30T23:01:47.713Z,19.03
2022-11-30T23:04:19.047Z,19.23
2022-11-30T23:06:48.750Z,19.33
2022-11-30T23:09:19.290Z,20.67
2022-11-30T23:11:47.944Z,18.97
2022-11-30T23:14:16.590Z,19.63
2022-11-30T23:16:45.794Z,19.17
2022-11-30T23:19:14.398Z,19.57
2022-11-30T23:21:45.881Z,19.83
2022-11-30T23:24:16.805Z,18.53
2022-11-30T23:26:45.519Z,19.43
2022-11-30T23:29:15.738Z,21.00
2022-11-30T23:31:45.653Z,21.10
2022-11-30T23:34:16.053Z,20.07
2022-11-30T23:36:46.847Z,20.17
2022-11-30T23:39:17.305Z,19.83
2022-11-30T23:41:45.894Z,20.40
2022-11-30T23:44:14.862Z,18.87
2022-11-30T23:46:43.395Z,21.33
2022-11-30T23:49:14.037Z,21.40
2022-11-30T23:51:42.488Z,20.03
2022-11-30T23:54:12.114Z,19.30
2022-11-30T23:56:40.474Z,19.90
2022-11-30T23:59:08.868Z,21.03
